WetterOnline ( https://www.wetteronline.de )

Wetter aktuell Nordwestuckermark

Aktuelles Wetter: Feldberg (115m)

6-stündlich | Neueste Meldungen
Ortszeit Temperatur Wetter
Mo, 25.01. 1:00 -0.0° C leichter Schneefall
So, 24.01. 19:00 0.5° C leichter Schneefall
So, 24.01. 13:00 1.6° C bedeckt
So, 24.01. 7:00 -0.5° C bedeckt
So, 24.01. 1:00 -2.8° C Nebel
Sa, 23.01. 19:00 0.3° C bedeckt
Sa, 23.01. 13:00 1.5° C bewölkt
Sa, 23.01. 7:00 -0.3° C bedeckt
Ortszeit Temperatur Wetter
Mo, 25.01. 2:30 0.1° C leichter Schneefall
Mo, 25.01. 2:20 0.1° C leichter Schneefall
Mo, 25.01. 2:10 0.1° C leichter Schneefall
Mo, 25.01. 2:00 -0.0° C leichter Schneefall
Mo, 25.01. 1:50 -0.0° C leichter Schneefall
Mo, 25.01. 1:40 -0.0° C leichter Schneefall
Mo, 25.01. 1:30 -0.0° C leichter Schneefall
Mo, 25.01. 1:00 -0.0° C leichter Schneefall
Mo, 25.01. 0:30 -0.0° C leichter Schneefall
Mo, 25.01. 0:00 0.1° C leichter Schneefall
So, 24.01. 23:30 0.2° C leichter Schneefall
Ortszeit Relative Feuchte Sichtweite
Mo, 25.01. 1:00 99% 6 km
So, 24.01. 19:00 98% 7 km
So, 24.01. 13:00 93% 26 km
So, 24.01. 7:00 100% 2.7 km
So, 24.01. 1:00 99% 100 m
Sa, 23.01. 19:00 96% 11 km
Sa, 23.01. 13:00 90% 16 km
Sa, 23.01. 7:00 96% 10 km
Ortszeit Relative Feuchte Sichtweite
Mo, 25.01. 2:30 99% 3.3 km
Mo, 25.01. 2:20 99% -
Mo, 25.01. 2:10 99% -
Mo, 25.01. 2:00 99% 4.5 km
Mo, 25.01. 1:50 99% -
Mo, 25.01. 1:40 100% -
Mo, 25.01. 1:30 100% 3.9 km
Mo, 25.01. 1:00 99% 6 km
Mo, 25.01. 0:30 99% 2.5 km
Mo, 25.01. 0:00 99% 8 km
So, 24.01. 23:30 99% 7 km
Ortszeit Niederschlagsmenge Niederschlagsart
Mo, 25.01. 1:00 0.4 l/m2 in 6 Std. Schnee
So, 24.01. 19:00 0.8 l/m2 in 12 Std. Schnee, Regen
So, 24.01. 13:00 0.1 l/m2 in 6 Std. Schnee, Regen
So, 24.01. 7:00 0.0 l/m2 in 12 Std. -
So, 24.01. 1:00 0.0 l/m2 in 6 Std. -
Sa, 23.01. 19:00 0.1 l/m2 in 12 Std. Regen
Sa, 23.01. 13:00 0.0 l/m2 in 6 Std. -
Sa, 23.01. 7:00 0.0 l/m2 in 12 Std. -
Ortszeit Niederschlagsmenge Niederschlagsart
Mo, 25.01. 2:30 0.2 l/m2 in 1 Std. -
Mo, 25.01. 2:20 keine Meldung -
Mo, 25.01. 2:10 keine Meldung -
Mo, 25.01. 2:00 0.1 l/m2 in 1 Std. Schnee
Mo, 25.01. 1:50 keine Meldung -
Mo, 25.01. 1:40 keine Meldung -
Mo, 25.01. 1:30 0.1 l/m2 in 1 Std. -
Mo, 25.01. 1:00 0.1 l/m2 in 1 Std. Schnee
Mo, 25.01. 0:30 0.1 l/m2 in 1 Std. -
Mo, 25.01. 0:00 0.1 l/m2 in 1 Std. Schnee
So, 24.01. 23:30 0.1 l/m2 in 1 Std. -
Ortszeit Stärke Spitze Richtung
km/h Bft. km/h Grad Sektor
Mo, 25.01. 1:00 7 2 14 250° W
So, 24.01. 19:00 11 2 18 340° N
So, 24.01. 13:00 4 1 22 250° W
So, 24.01. 7:00 4 1 7 130° SO
So, 24.01. 1:00 0 0 11 - -
Sa, 23.01. 19:00 0 0 14 - -
Sa, 23.01. 13:00 7 2 14 310° NW
Sa, 23.01. 7:00 4 1 11 290° W
Ortszeit Stärke Spitze Richtung
km/h Bft. km/h Grad Sektor
Mo, 25.01. 2:30 7 2 11 230° SW
Mo, 25.01. 2:20 7 2 - 230° SW
Mo, 25.01. 2:10 7 2 - 230° SW
Mo, 25.01. 2:00 7 2 14 230° SW
Mo, 25.01. 1:50 7 2 - 230° SW
Mo, 25.01. 1:40 7 2 - 230° SW
Mo, 25.01. 1:30 7 2 11 230° SW
Mo, 25.01. 1:00 7 2 14 250° W
Mo, 25.01. 0:30 9 2 13 260° W
Mo, 25.01. 0:00 6 1 11 280° W
So, 24.01. 23:30 7 2 11 290° W
Ortszeit Untergrenze Bedeckung Gattung
total tief tief mittel hoch
Mo, 25.01. 1:00 30 m 8/8 8/8 - - -
So, 24.01. 19:00 90 m 8/8 8/8 - - -
So, 24.01. 13:00 120 m 8/8 8/8 - - -
So, 24.01. 7:00 1140 m 8/8 8/8 - - -
So, 24.01. 1:00 <30 m 8/8 0/8 - - -
Sa, 23.01. 19:00 2400 m 8/8 8/8 - - -
Sa, 23.01. 13:00 1410 m 7/8 7/8 - - -
Sa, 23.01. 7:00 2700 m 8/8 8/8 - - -
Ortszeit Bedeckungsgrad in Achtel und Wolkenuntergrenze
Mo, 25.01. 2:30 8(120m)
Mo, 25.01. 2:20 8(120m)
Mo, 25.01. 2:10 8(90m)
Mo, 25.01. 2:00 8(60m)
Mo, 25.01. 1:50 8(60m)
Mo, 25.01. 1:40 8(60m)
Mo, 25.01. 1:30 8(30m)
Mo, 25.01. 1:00 7(30m) 8(480m) 8(1020m)
Mo, 25.01. 0:30 7(60m) 7(690m)
Mo, 25.01. 0:00 7(150m) 8(1200m) 8(2100m)
So, 24.01. 23:30 7(90m) 7(1500m) 8(1170m)
Ortszeit Luftdruck NN (hPa) Tendenz (hPa in 3 Std.)
Mo, 25.01. 1:00 998 + 0,1
So, 24.01. 19:00 998 + 0,6
So, 24.01. 13:00 997 + 0,4
So, 24.01. 7:00 996 - 0,4
So, 24.01. 1:00 997 + 0,1
Sa, 23.01. 19:00 996 + 0,2
Sa, 23.01. 13:00 997 - 1,5
Sa, 23.01. 7:00 997 - 0,6
Ortszeit Luftdruck NN (hPa) Tendenz (hPa in 3 Std.)
Mo, 25.01. 2:30 998 + 0,1
Mo, 25.01. 2:20 998 keine Meldung
Mo, 25.01. 2:10 998 keine Meldung
Mo, 25.01. 2:00 998 + 0,3
Mo, 25.01. 1:50 998 keine Meldung
Mo, 25.01. 1:40 998 keine Meldung
Mo, 25.01. 1:30 998 + 0,3
Mo, 25.01. 1:00 998 + 0,1
Mo, 25.01. 0:30 998 + 0,4
Mo, 25.01. 0:00 998 + 0,3
So, 24.01. 23:30 998 + 0,5
Ortszeit Schneehöhe (cm)
Mo, 25.01. 1:00 0
So, 24.01. 19:00 0
So, 24.01. 13:00 0
So, 24.01. 7:00 0
So, 24.01. 1:00 0
Sa, 23.01. 19:00 0
Sa, 23.01. 13:00 0
Sa, 23.01. 7:00 0
Ortszeit Schneehöhe (cm)
Mo, 25.01. 2:30 0
Mo, 25.01. 2:20 0
Mo, 25.01. 2:10 0
Mo, 25.01. 2:00 0
Mo, 25.01. 1:50 0
Mo, 25.01. 1:40 0
Mo, 25.01. 1:30 0
Mo, 25.01. 1:00 0
Mo, 25.01. 0:30 0
Mo, 25.01. 0:00 0
So, 24.01. 23:30 0
Link zu dieser Seite / Seite empfehlen

Das Wetter in ...